Time;durP1;ratioP1;P1;durP2;ratioP2;P2;SDS_P1;SDS_P2;PMS_P1;PMS_P2;Temp;Humidity;BMP_temperature;BMP_pressure;BME280_temperature;BME280_humidity;BME280_pressure;Samples;Min_cycle;Max_cycle;Signal;HPM_P1;HPM_P2
2021/08/22 00:01:51;;;;;;;9.50;6.22;;;;;;;;;;143742;570;46010;-53
2021/08/22 00:04:18;;;;;;;8.50;5.97;;;;;;;;;;143746;584;46022;-53
2021/08/22 00:06:45;;;;;;;10.38;6.47;;;;;;;;;;143744;575;46020;-54
2021/08/22 00:09:12;;;;;;;10.00;6.15;;;;;;;;;;143742;572;46022;-54
2021/08/22 00:11:39;;;;;;;8.80;5.97;;;;;;;;;;143742;610;46010;-54
2021/08/22 00:14:06;;;;;;;9.43;5.75;;;;;;;;;;143747;589;46023;-54
2021/08/22 00:16:33;;;;;;;11.75;6.25;;;;;;;;;;143743;638;46020;-54
2021/08/22 00:19:00;;;;;;;12.27;6.72;;;;;;;;;;143741;578;46022;-53
2021/08/22 00:21:27;;;;;;;9.05;6.93;;;;;;;;;;143743;636;46010;-54
2021/08/22 00:23:54;;;;;;;9.45;6.28;;;;;;;;;;143747;569;45022;-53
2021/08/22 00:26:21;;;;;;;11.73;6.70;;;;;;;;;;143744;610;46020;-53
2021/08/22 00:28:48;;;;;;;11.00;6.35;;;;;;;;;;143741;572;46023;-54
2021/08/22 00:31:15;;;;;;;9.27;6.82;;;;;;;;;;143742;585;46010;-53
2021/08/22 00:33:42;;;;;;;11.95;7.05;;;;;;;;;;143748;575;46022;-54
2021/08/22 00:36:09;;;;;;;11.23;6.65;;;;;;;;;;143744;591;46020;-54
2021/08/22 00:38:36;;;;;;;12.88;6.00;;;;;;;;;;143742;595;46022;-54
2021/08/22 00:41:04;;;;;;;7.72;6.37;;;;;;;;;;143743;567;46010;-53
2021/08/22 00:43:31;;;;;;;10.05;6.68;;;;;;;;;;143748;572;45023;-53
2021/08/22 00:45:59;;;;;;;9.75;6.70;;;;;;;;;;143742;597;47018;-54
2021/08/22 00:48:30;;;;;;;8.15;6.37;;;;;;;;;;143741;595;46022;-53
2021/08/22 00:50:59;;;;;;;7.95;6.03;;;;;;;;;;143744;623;46010;-54
2021/08/22 00:53:26;;;;;;;12.05;6.90;;;;;;;;;;143747;596;45022;-54
2021/08/22 00:55:57;;;;;;;9.07;6.70;;;;;;;;;;143743;687;46018;-54
2021/08/22 00:58:24;;;;;;;13.20;6.70;;;;;;;;;;143744;573;46023;-54
2021/08/22 01:00:53;;;;;;;13.05;7.30;;;;;;;;;;143742;743;46010;-53
2021/08/22 01:03:41;;;;;;;13.70;6.85;;;;;;;;;;143746;578;45022;-54
2021/08/22 01:06:32;;;;;;;8.93;6.35;;;;;;;;;;143744;565;46020;-54
2021/08/22 01:09:12;;;;;;;11.02;6.72;;;;;;;;;;143744;566;46022;-54
2021/08/22 01:11:40;;;;;;;9.45;6.90;;;;;;;;;;143741;565;46913;-53
2021/08/22 01:14:14;;;;;;;9.15;6.37;;;;;;;;;;143748;597;45023;-53
2021/08/22 01:16:52;;;;;;;9.50;6.00;;;;;;;;;;143745;589;46020;-53
2021/08/22 01:19:35;;;;;;;9.65;6.60;;;;;;;;;;143742;612;46022;-54
2021/08/22 01:22:05;;;;;;;9.05;6.50;;;;;;;;;;143744;579;46010;-54
2021/08/22 01:24:35;;;;;;;9.30;6.78;;;;;;;;;;143747;634;45022;-53
2021/08/22 01:27:02;;;;;;;7.82;6.20;;;;;;;;;;143744;576;46020;-54
2021/08/22 01:29:35;;;;;;;11.15;6.78;;;;;;;;;;143741;585;46023;-54
2021/08/22 01:32:02;;;;;;;8.10;6.45;;;;;;;;;;143744;604;46010;-53
2021/08/22 01:34:30;;;;;;;8.05;6.05;;;;;;;;;;143747;681;45023;-54
2021/08/22 01:37:00;;;;;;;10.80;7.07;;;;;;;;;;143744;615;46021;-54
2021/08/22 01:39:28;;;;;;;9.73;7.10;;;;;;;;;;143740;575;46022;-54
2021/08/22 01:41:55;;;;;;;10.88;6.55;;;;;;;;;;143744;600;46011;-53
2021/08/22 01:44:23;;;;;;;9.38;7.03;;;;;;;;;;143746;583;45023;-54
2021/08/22 01:46:50;;;;;;;9.35;7.18;;;;;;;;;;143743;566;46020;-53
2021/08/22 01:49:22;;;;;;;13.13;6.57;;;;;;;;;;143740;636;46921;-54
2021/08/22 01:51:49;;;;;;;9.63;6.50;;;;;;;;;;143744;573;46010;-54
2021/08/22 01:54:16;;;;;;;9.77;7.03;;;;;;;;;;143748;648;45028;-54
2021/08/22 01:56:44;;;;;;;8.25;6.47;;;;;;;;;;143743;581;47019;-54
2021/08/22 01:59:10;;;;;;;10.48;6.97;;;;;;;;;;143741;578;46023;-53
2021/08/22 02:01:38;;;;;;;11.38;6.37;;;;;;;;;;143745;570;46010;-54
2021/08/22 02:04:30;;;;;;;10.05;6.37;;;;;;;;;;143747;686;46022;-54
2021/08/22 02:07:18;;;;;;;8.73;6.62;;;;;;;;;;143745;622;46018;-53
2021/08/22 02:10:27;;;;;;;8.60;6.40;;;;;;;;;;143741;573;46022;-53
2021/08/22 02:13:00;;;;;;;9.02;6.43;;;;;;;;;;143743;607;46010;-54
2021/08/22 02:15:33;;;;;;;10.52;6.72;;;;;;;;;;143745;671;46022;-53
2021/08/22 02:18:06;;;;;;;8.80;6.07;;;;;;;;;;143743;614;46020;-54
2021/08/22 02:20:36;;;;;;;10.93;7.05;;;;;;;;;;143741;569;46023;-54
2021/08/22 02:23:03;;;;;;;10.40;7.00;;;;;;;;;;143742;567;46010;-53
2021/08/22 02:25:31;;;;;;;7.82;6.32;;;;;;;;;;143747;775;46022;-54
2021/08/22 02:28:00;;;;;;;10.18;6.93;;;;;;;;;;143745;592;46020;-53
2021/08/22 02:30:38;;;;;;;7.85;5.87;;;;;;;;;;143742;620;46022;-54
2021/08/22 02:33:06;;;;;;;8.00;6.12;;;;;;;;;;143742;589;46010;-53
2021/08/22 02:35:34;;;;;;;11.18;6.87;;;;;;;;;;143747;587;46023;-54
2021/08/22 02:38:01;;;;;;;7.85;6.22;;;;;;;;;;143745;586;46020;-53
2021/08/22 02:40:28;;;;;;;8.50;6.18;;;;;;;;;;143743;596;46022;-54
2021/08/22 02:42:56;;;;;;;8.65;6.35;;;;;;;;;;143743;588;46019;-54
2021/08/22 02:45:23;;;;;;;11.30;6.55;;;;;;;;;;143746;616;46022;-54
2021/08/22 02:47:50;;;;;;;8.05;6.18;;;;;;;;;;143744;569;46018;-54
2021/08/22 02:50:17;;;;;;;10.05;6.50;;;;;;;;;;143741;569;46023;-53
2021/08/22 02:52:44;;;;;;;9.90;6.95;;;;;;;;;;143744;585;46010;-54
2021/08/22 02:55:11;;;;;;;8.95;6.80;;;;;;;;;;143746;606;45022;-54
2021/08/22 02:57:38;;;;;;;8.95;6.87;;;;;;;;;;143743;612;46020;-53
2021/08/22 03:00:05;;;;;;;13.25;6.87;;;;;;;;;;143741;566;46022;-54
2021/08/22 03:02:32;;;;;;;9.85;6.35;;;;;;;;;;143743;571;46016;-54
2021/08/22 03:04:59;;;;;;;10.27;6.87;;;;;;;;;;143747;571;46022;-53
2021/08/22 03:07:26;;;;;;;8.10;6.87;;;;;;;;;;143744;631;46020;-53
2021/08/22 03:09:53;;;;;;;11.73;6.22;;;;;;;;;;143741;602;46022;-53
2021/08/22 03:12:20;;;;;;;13.62;6.72;;;;;;;;;;143743;563;46010;-54
2021/08/22 03:14:48;;;;;;;10.00;7.05;;;;;;;;;;143747;626;46022;-53
2021/08/22 03:17:15;;;;;;;8.35;6.03;;;;;;;;;;143744;586;46019;-54
2021/08/22 03:19:41;;;;;;;9.45;7.00;;;;;;;;;;143739;622;46023;-54
2021/08/22 03:22:08;;;;;;;13.00;7.47;;;;;;;;;;143742;584;46010;-54
2021/08/22 03:24:35;;;;;;;11.27;6.65;;;;;;;;;;143747;589;46022;-54
2021/08/22 03:27:02;;;;;;;8.57;6.55;;;;;;;;;;143743;606;46020;-54
2021/08/22 03:29:29;;;;;;;11.70;7.18;;;;;;;;;;143741;604;46022;-54
2021/08/22 03:31:56;;;;;;;10.57;7.50;;;;;;;;;;143743;581;46010;-53
2021/08/22 03:34:23;;;;;;;13.85;7.30;;;;;;;;;;143745;686;46023;-54
2021/08/22 03:36:51;;;;;;;10.82;6.60;;;;;;;;;;143744;638;46018;-54
2021/08/22 03:39:18;;;;;;;9.60;6.97;;;;;;;;;;143741;575;46022;-54
2021/08/22 03:41:45;;;;;;;11.07;7.43;;;;;;;;;;143744;619;46019;-53
2021/08/22 03:44:12;;;;;;;12.15;7.47;;;;;;;;;;143746;603;46023;-54
2021/08/22 03:46:39;;;;;;;11.63;8.07;;;;;;;;;;143744;594;46020;-53
2021/08/22 03:49:06;;;;;;;11.43;7.15;;;;;;;;;;143741;569;46023;-53
2021/08/22 03:51:33;;;;;;;13.62;7.28;;;;;;;;;;143739;592;47018;-54
2021/08/22 03:54:00;;;;;;;8.57;6.97;;;;;;;;;;143746;607;46022;-53
2021/08/22 03:56:27;;;;;;;12.43;7.20;;;;;;;;;;143743;620;46020;-53
2021/08/22 03:58:54;;;;;;;11.30;7.47;;;;;;;;;;143743;611;46022;-53
2021/08/22 04:01:21;;;;;;;9.77;7.18;;;;;;;;;;143743;595;46010;-54
2021/08/22 04:03:49;;;;;;;11.20;8.02;;;;;;;;;;143748;617;46022;-53
2021/08/22 04:06:16;;;;;;;9.65;6.87;;;;;;;;;;143743;622;46021;-53
2021/08/22 04:08:43;;;;;;;9.45;7.18;;;;;;;;;;143742;582;46022;-53
2021/08/22 04:11:10;;;;;;;11.32;7.75;;;;;;;;;;143743;619;46011;-53
2021/08/22 04:13:37;;;;;;;14.02;7.97;;;;;;;;;;143746;571;46023;-53
2021/08/22 04:16:05;;;;;;;15.85;8.02;;;;;;;;;;143743;571;46020;-53
2021/08/22 04:18:32;;;;;;;8.85;6.93;;;;;;;;;;143739;622;46022;-53
2021/08/22 04:20:59;;;;;;;13.13;7.22;;;;;;;;;;143740;583;46019;-53
2021/08/22 04:23:26;;;;;;;11.15;6.95;;;;;;;;;;143745;567;45022;-53
2021/08/22 04:25:54;;;;;;;12.23;7.22;;;;;;;;;;143741;616;46019;-53
2021/08/22 04:28:21;;;;;;;11.98;7.03;;;;;;;;;;143741;720;46022;-54
2021/08/22 04:30:48;;;;;;;15.23;7.37;;;;;;;;;;143744;585;46010;-54
2021/08/22 04:33:15;;;;;;;10.43;7.18;;;;;;;;;;143744;622;45020;-53
2021/08/22 04:35:42;;;;;;;8.18;6.43;;;;;;;;;;143743;606;46023;-53
2021/08/22 04:38:09;;;;;;;10.00;6.72;;;;;;;;;;143741;566;46020;-53
2021/08/22 04:40:38;;;;;;;7.87;6.65;;;;;;;;;;143741;588;46010;-53
2021/08/22 04:43:05;;;;;;;11.30;7.10;;;;;;;;;;143744;598;46020;-54
2021/08/22 04:45:33;;;;;;;11.25;7.53;;;;;;;;;;143741;581;46022;-53
2021/08/22 04:48:00;;;;;;;10.88;7.00;;;;;;;;;;143739;589;46021;-54
2021/08/22 04:50:27;;;;;;;10.18;6.82;;;;;;;;;;143741;619;46010;-53
2021/08/22 04:52:54;;;;;;;9.50;6.95;;;;;;;;;;143745;591;46020;-53
2021/08/22 04:55:21;;;;;;;11.35;7.25;;;;;;;;;;143740;622;46022;-53
2021/08/22 04:57:48;;;;;;;9.82;6.93;;;;;;;;;;143739;575;46021;-54
2021/08/22 05:00:15;;;;;;;9.43;6.90;;;;;;;;;;143741;612;46020;-53
2021/08/22 05:02:43;;;;;;;8.80;7.30;;;;;;;;;;143746;618;45031;-53
2021/08/22 05:05:10;;;;;;;10.38;6.95;;;;;;;;;;143748;564;46021;-53
2021/08/22 05:07:37;;;;;;;11.15;7.22;;;;;;;;;;143740;576;46020;-52
2021/08/22 05:10:05;;;;;;;8.48;6.28;;;;;;;;;;143742;574;46010;-53
2021/08/22 05:12:32;;;;;;;7.82;5.85;;;;;;;;;;143745;581;45021;-54
2021/08/22 05:14:59;;;;;;;8.55;6.05;;;;;;;;;;143742;591;47020;-53
2021/08/22 05:17:26;;;;;;;8.60;6.32;;;;;;;;;;143739;686;46020;-53
2021/08/22 05:19:53;;;;;;;7.97;5.87;;;;;;;;;;143743;598;46010;-53
2021/08/22 05:22:21;;;;;;;11.60;6.85;;;;;;;;;;143744;686;46020;-53
2021/08/22 05:24:48;;;;;;;10.80;6.90;;;;;;;;;;143740;611;46020;-53
2021/08/22 05:27:15;;;;;;;9.55;6.72;;;;;;;;;;143741;599;46021;-53
2021/08/22 05:29:41;;;;;;;8.80;6.07;;;;;;;;;;143741;566;46020;-53
2021/08/22 05:32:09;;;;;;;8.70;6.30;;;;;;;;;;143744;593;46020;-53
2021/08/22 05:34:36;;;;;;;11.10;6.78;;;;;;;;;;143742;593;46021;-53
2021/08/22 05:37:03;;;;;;;11.48;6.97;;;;;;;;;;143739;638;46020;-53
2021/08/22 05:39:30;;;;;;;9.30;6.25;;;;;;;;;;143741;563;46010;-53
2021/08/22 05:41:57;;;;;;;10.55;7.10;;;;;;;;;;143744;612;46021;-54
2021/08/22 05:44:24;;;;;;;10.05;6.18;;;;;;;;;;143742;649;46022;-53
2021/08/22 05:46:51;;;;;;;11.27;6.60;;;;;;;;;;143739;584;46020;-53
2021/08/22 05:49:19;;;;;;;12.35;6.72;;;;;;;;;;143742;569;46010;-53
2021/08/22 05:51:46;;;;;;;10.98;6.90;;;;;;;;;;143744;628;46020;-53
2021/08/22 05:54:13;;;;;;;8.48;6.70;;;;;;;;;;143740;581;47020;-53
2021/08/22 05:56:40;;;;;;;12.13;6.87;;;;;;;;;;143739;643;46021;-53
2021/08/22 05:59:07;;;;;;;9.70;6.22;;;;;;;;;;143742;603;46010;-53
2021/08/22 06:01:35;;;;;;;11.05;6.10;;;;;;;;;;143744;614;46020;-52
2021/08/22 06:04:01;;;;;;;11.73;6.55;;;;;;;;;;143740;700;46022;-52
2021/08/22 06:06:29;;;;;;;10.25;6.57;;;;;;;;;;143741;666;46020;-52
2021/08/22 06:08:56;;;;;;;11.85;6.45;;;;;;;;;;143741;588;46010;-53
2021/08/22 06:11:23;;;;;;;10.65;6.03;;;;;;;;;;143743;633;45021;-52
2021/08/22 06:13:50;;;;;;;11.70;5.87;;;;;;;;;;143742;602;46023;-53
2021/08/22 06:16:17;;;;;;;8.73;5.75;;;;;;;;;;143741;593;46020;-52
2021/08/22 06:18:44;;;;;;;12.05;5.97;;;;;;;;;;143741;726;46010;-52
2021/08/22 06:21:11;;;;;;;10.88;6.62;;;;;;;;;;143746;585;45020;-53
2021/08/22 06:23:38;;;;;;;12.18;6.50;;;;;;;;;;143742;563;46022;-53
2021/08/22 06:26:05;;;;;;;11.18;6.35;;;;;;;;;;143741;581;46021;-53
2021/08/22 06:28:32;;;;;;;13.70;6.12;;;;;;;;;;143744;571;46010;-53
2021/08/22 06:30:59;;;;;;;10.68;6.47;;;;;;;;;;143745;640;46020;-52
2021/08/22 06:33:26;;;;;;;10.65;6.15;;;;;;;;;;143742;574;46021;-53
2021/08/22 06:36:00;;;;;;;14.65;6.28;;;;;;;;;;143739;572;46020;-53
2021/08/22 06:38:27;;;;;;;10.13;5.82;;;;;;;;;;143742;605;46010;-52
2021/08/22 06:40:54;;;;;;;13.82;5.82;;;;;;;;;;143745;599;46020;-52
2021/08/22 06:43:21;;;;;;;10.55;6.22;;;;;;;;;;143742;594;46023;-52
2021/08/22 06:45:49;;;;;;;11.25;6.12;;;;;;;;;;143739;600;46918;-52
2021/08/22 06:48:15;;;;;;;10.02;6.10;;;;;;;;;;143741;582;46010;-51
2021/08/22 06:50:45;;;;;;;10.98;6.50;;;;;;;;;;143745;665;46021;-51
2021/08/22 06:53:12;;;;;;;7.18;5.97;;;;;;;;;;143741;590;46022;-52
2021/08/22 06:55:42;;;;;;;8.00;5.80;;;;;;;;;;143739;576;46021;-51
2021/08/22 06:58:09;;;;;;;12.32;6.47;;;;;;;;;;143743;573;46010;-52
2021/08/22 07:00:36;;;;;;;7.72;6.03;;;;;;;;;;143744;610;46020;-52
2021/08/22 07:03:03;;;;;;;9.48;6.12;;;;;;;;;;143741;576;46022;-51
2021/08/22 07:05:30;;;;;;;11.45;6.53;;;;;;;;;;143740;591;46020;-51
2021/08/22 07:07:57;;;;;;;10.45;6.28;;;;;;;;;;143741;587;46010;-51
2021/08/22 07:10:24;;;;;;;9.50;5.90;;;;;;;;;;143744;634;46020;-51
2021/08/22 07:12:51;;;;;;;10.43;6.30;;;;;;;;;;143742;579;46020;-51
2021/08/22 07:15:18;;;;;;;11.70;7.12;;;;;;;;;;143741;570;46020;-52
2021/08/22 07:17:45;;;;;;;9.32;6.20;;;;;;;;;;143742;578;46010;-53
2021/08/22 07:20:12;;;;;;;13.45;7.10;;;;;;;;;;143746;598;46020;-53
2021/08/22 07:22:39;;;;;;;14.10;6.35;;;;;;;;;;143741;605;46022;-53
2021/08/22 07:25:07;;;;;;;9.05;5.60;;;;;;;;;;143739;601;46021;-52
2021/08/22 07:27:34;;;;;;;10.77;5.85;;;;;;;;;;143740;592;46010;-52
2021/08/22 07:30:02;;;;;;;16.80;7.22;;;;;;;;;;143744;584;45020;-52
2021/08/22 07:32:29;;;;;;;9.18;6.22;;;;;;;;;;143743;599;46022;-53
2021/08/22 07:34:56;;;;;;;7.80;5.85;;;;;;;;;;143739;565;46029;-52
2021/08/22 07:37:23;;;;;;;13.50;9.70;;;;;;;;;;143744;564;46009;-52
2021/08/22 07:39:50;;;;;;;10.10;5.62;;;;;;;;;;143744;581;46020;-52
2021/08/22 07:42:17;;;;;;;9.40;5.80;;;;;;;;;;143743;591;46023;-51
2021/08/22 07:44:43;;;;;;;19.48;6.28;;;;;;;;;;143739;569;46020;-52
2021/08/22 07:47:11;;;;;;;10.07;5.40;;;;;;;;;;143742;590;46011;-51
2021/08/22 07:49:38;;;;;;;15.00;6.05;;;;;;;;;;143744;651;45021;-51
2021/08/22 07:52:05;;;;;;;8.75;5.68;;;;;;;;;;143739;610;47020;-51
2021/08/22 07:54:32;;;;;;;9.90;5.57;;;;;;;;;;143739;566;46021;-52
2021/08/22 07:57:00;;;;;;;12.07;6.12;;;;;;;;;;143741;619;46010;-52
2021/08/22 07:59:27;;;;;;;6.70;5.43;;;;;;;;;;143745;589;45032;-51
2021/08/22 08:01:54;;;;;;;10.55;5.55;;;;;;;;;;143744;645;46022;-51
2021/08/22 08:04:21;;;;;;;7.62;5.53;;;;;;;;;;143739;620;46021;-51
2021/08/22 08:06:48;;;;;;;9.63;5.28;;;;;;;;;;143741;566;46010;-51
2021/08/22 08:09:15;;;;;;;8.13;6.10;;;;;;;;;;143744;631;45021;-51
2021/08/22 08:11:43;;;;;;;9.15;6.00;;;;;;;;;;143741;590;46023;-51
2021/08/22 08:14:09;;;;;;;8.18;5.65;;;;;;;;;;143739;585;46918;-51
2021/08/22 08:16:37;;;;;;;9.02;6.40;;;;;;;;;;143739;620;46011;-51
2021/08/22 08:19:04;;;;;;;7.03;5.95;;;;;;;;;;143744;667;45021;-51
2021/08/22 08:21:31;;;;;;;12.18;6.05;;;;;;;;;;143740;592;47020;-52
2021/08/22 08:23:58;;;;;;;10.82;6.57;;;;;;;;;;143741;578;46021;-51
2021/08/22 08:26:25;;;;;;;12.02;6.25;;;;;;;;;;143741;576;46010;-51
2021/08/22 08:28:52;;;;;;;8.90;5.72;;;;;;;;;;143746;566;45020;-52
2021/08/22 08:31:19;;;;;;;10.75;6.10;;;;;;;;;;143742;584;46022;-51
2021/08/22 08:33:46;;;;;;;11.05;6.45;;;;;;;;;;143740;564;46020;-52
2021/08/22 08:36:13;;;;;;;7.82;6.07;;;;;;;;;;143741;659;46010;-51
2021/08/22 08:38:40;;;;;;;8.90;6.50;;;;;;;;;;143744;603;45030;-52
2021/08/22 08:41:07;;;;;;;8.23;6.20;;;;;;;;;;143743;661;46023;-51
2021/08/22 08:43:34;;;;;;;9.95;6.25;;;;;;;;;;143741;620;46020;-51
2021/08/22 08:46:33;;;;;;;8.38;6.18;;;;;;;;;;143742;566;46010;-51
2021/08/22 08:49:11;;;;;;;10.02;6.95;;;;;;;;;;143746;589;45021;-52
2021/08/22 08:52:14;;;;;;;8.75;6.15;;;;;;;;;;143742;588;46022;-51
2021/08/22 08:55:06;;;;;;;8.80;6.28;;;;;;;;;;143739;613;46021;-51
2021/08/22 08:57:34;;;;;;;10.05;5.87;;;;;;;;;;143741;583;46010;-51
2021/08/22 09:00:01;;;;;;;9.75;6.10;;;;;;;;;;143746;563;45025;-51
2021/08/22 09:02:28;;;;;;;9.23;6.40;;;;;;;;;;143742;618;46021;-52
2021/08/22 09:05:11;;;;;;;9.82;6.60;;;;;;;;;;143742;641;46020;-52
2021/08/22 09:08:13;;;;;;;8.45;6.90;;;;;;;;;;143740;610;46010;-52
2021/08/22 09:11:23;;;;;;;9.48;6.60;;;;;;;;;;143744;577;45021;-52
2021/08/22 09:14:26;;;;;;;9.15;6.47;;;;;;;;;;143741;607;46022;-52
2021/08/22 09:17:48;;;;;;;8.52;6.25;;;;;;;;;;143741;585;46021;-52
2021/08/22 09:21:07;;;;;;;8.13;6.45;;;;;;;;;;143743;595;46010;-51
2021/08/22 09:24:09;;;;;;;14.30;6.78;;;;;;;;;;143746;593;46020;-51
2021/08/22 09:27:13;;;;;;;10.45;6.93;;;;;;;;;;143741;569;46023;-51
2021/08/22 09:30:16;;;;;;;8.10;6.75;;;;;;;;;;143738;644;46020;-53
2021/08/22 09:33:35;;;;;;;13.98;5.95;;;;;;;;;;143743;594;46010;-53
2021/08/22 09:36:55;;;;;;;10.40;6.75;;;;;;;;;;143746;664;46020;-53
2021/08/22 09:39:58;;;;;;;9.88;6.40;;;;;;;;;;143741;586;46022;-52
2021/08/22 09:43:20;;;;;;;9.35;6.47;;;;;;;;;;143741;572;46020;-52
2021/08/22 09:46:23;;;;;;;13.32;6.90;;;;;;;;;;143742;598;46011;-52
2021/08/22 09:49:47;;;;;;;8.48;6.87;;;;;;;;;;143744;578;45021;-52
2021/08/22 09:53:09;;;;;;;9.23;6.50;;;;;;;;;;143740;605;47022;-52
2021/08/22 09:56:22;;;;;;;10.02;6.70;;;;;;;;;;143740;654;46020;-52
2021/08/22 09:59:25;;;;;;;8.55;6.50;;;;;;;;;;143740;580;46010;-52
2021/08/22 10:02:28;;;;;;;8.00;6.28;;;;;;;;;;143745;579;45021;-52
2021/08/22 10:05:43;;;;;;;9.95;6.40;;;;;;;;;;143741;608;46022;-53
2021/08/22 10:08:35;;;;;;;9.40;6.20;;;;;;;;;;143738;610;46020;-53
2021/08/22 10:11:03;;;;;;;7.32;6.00;;;;;;;;;;143742;656;46010;-52
2021/08/22 10:13:36;;;;;;;9.80;6.10;;;;;;;;;;143744;566;46010;-53
2021/08/22 10:16:03;;;;;;;10.45;6.55;;;;;;;;;;143743;578;46021;-52
2021/08/22 10:18:30;;;;;;;7.95;6.18;;;;;;;;;;143739;576;46021;-52
2021/08/22 10:21:07;;;;;;;8.00;6.35;;;;;;;;;;143742;594;46010;-53
2021/08/22 10:23:55;;;;;;;9.27;6.22;;;;;;;;;;143745;703;46020;-52
2021/08/22 10:26:57;;;;;;;7.43;6.18;;;;;;;;;;143741;582;47020;-53
2021/08/22 10:29:29;;;;;;;8.32;5.60;;;;;;;;;;143740;601;46020;-53
2021/08/22 10:32:06;;;;;;;7.72;5.80;;;;;;;;;;143742;638;46011;-53
2021/08/22 10:34:33;;;;;;;9.25;6.22;;;;;;;;;;143746;579;45020;-53
2021/08/22 10:37:20;;;;;;;8.82;5.90;;;;;;;;;;143741;654;46022;-53
2021/08/22 10:39:47;;;;;;;9.55;5.75;;;;;;;;;;143741;698;46021;-53
2021/08/22 10:42:24;;;;;;;8.95;6.00;;;;;;;;;;143742;595;46010;-53
2021/08/22 10:44:52;;;;;;;10.25;6.12;;;;;;;;;;143746;584;46020;-53
2021/08/22 10:47:40;;;;;;;11.70;6.37;;;;;;;;;;143744;557;46021;-53
2021/08/22 10:50:08;;;;;;;9.05;5.40;;;;;;;;;;143739;698;46020;-53
2021/08/22 10:52:36;;;;;;;9.18;5.68;;;;;;;;;;143741;563;46010;-53
2021/08/22 10:55:32;;;;;;;8.65;5.60;;;;;;;;;;143745;587;47021;-53
2021/08/22 10:57:59;;;;;;;7.60;5.18;;;;;;;;;;143743;684;46024;-53
2021/08/22 11:00:38;;;;;;;8.27;5.37;;;;;;;;;;143741;589;46021;-54
2021/08/22 11:03:23;;;;;;;9.63;5.75;;;;;;;;;;143740;588;46010;-53
2021/08/22 11:05:50;;;;;;;8.20;6.05;;;;;;;;;;143746;595;45020;-53
2021/08/22 11:08:23;;;;;;;9.02;5.50;;;;;;;;;;143741;588;46022;-52
2021/08/22 11:11:07;;;;;;;8.98;5.65;;;;;;;;;;143739;591;46020;-53
2021/08/22 11:13:41;;;;;;;7.47;5.12;;;;;;;;;;143742;610;46010;-53
2021/08/22 11:16:09;;;;;;;8.98;5.70;;;;;;;;;;143748;648;45021;-52
2021/08/22 11:18:44;;;;;;;7.05;5.50;;;;;;;;;;143742;597;46023;-53
2021/08/22 11:21:12;;;;;;;8.95;5.37;;;;;;;;;;143740;575;46020;-53
2021/08/22 11:23:39;;;;;;;6.90;5.72;;;;;;;;;;143744;664;46010;-52
2021/08/22 11:26:09;;;;;;;6.78;4.97;;;;;;;;;;143746;668;45021;-53
2021/08/22 11:28:37;;;;;;;8.52;5.85;;;;;;;;;;143742;664;46022;-53
2021/08/22 11:31:14;;;;;;;8.60;5.55;;;;;;;;;;143741;608;46021;-53
2021/08/22 11:33:41;;;;;;;9.63;6.15;;;;;;;;;;143742;634;46020;-52
2021/08/22 11:36:08;;;;;;;9.50;5.65;;;;;;;;;;143747;648;46020;-52
2021/08/22 11:38:35;;;;;;;9.05;5.47;;;;;;;;;;143743;641;46021;-52
2021/08/22 11:41:03;;;;;;;7.85;5.45;;;;;;;;;;143740;573;46020;-52
2021/08/22 11:43:31;;;;;;;7.50;5.32;;;;;;;;;;143742;674;46010;-53
2021/08/22 11:45:59;;;;;;;9.43;5.80;;;;;;;;;;143747;567;45021;-52
2021/08/22 11:48:26;;;;;;;8.52;5.80;;;;;;;;;;143744;614;46023;-53
2021/08/22 11:51:01;;;;;;;8.63;5.53;;;;;;;;;;143740;609;46020;-52
2021/08/22 11:53:32;;;;;;;8.40;5.22;;;;;;;;;;143743;602;46010;-52
2021/08/22 11:56:00;;;;;;;10.52;5.60;;;;;;;;;;143745;581;46020;-53
2021/08/22 11:58:34;;;;;;;6.47;4.90;;;;;;;;;;143743;608;46022;-53
2021/08/22 12:01:13;;;;;;;7.87;5.10;;;;;;;;;;143741;620;46021;-52
2021/08/22 12:03:55;;;;;;;7.93;5.78;;;;;;;;;;143742;591;46010;-53
2021/08/22 12:06:22;;;;;;;6.15;5.07;;;;;;;;;;143746;601;46020;-53
2021/08/22 12:08:49;;;;;;;7.57;5.80;;;;;;;;;;143742;569;46022;-52
2021/08/22 12:11:21;;;;;;;7.30;5.28;;;;;;;;;;143742;585;46020;-53
2021/08/22 12:13:49;;;;;;;7.53;5.70;;;;;;;;;;143743;615;46010;-53
2021/08/22 12:16:33;;;;;;;6.82;5.22;;;;;;;;;;143748;569;46021;-53
2021/08/22 12:19:21;;;;;;;8.02;5.18;;;;;;;;;;143744;597;46022;-52
2021/08/22 12:21:49;;;;;;;7.43;4.70;;;;;;;;;;143740;581;46020;-53
2021/08/22 12:24:28;;;;;;;7.15;5.32;;;;;;;;;;143743;648;46010;-53
2021/08/22 12:26:58;;;;;;;7.45;5.20;;;;;;;;;;143747;574;45020;-53
2021/08/22 12:29:39;;;;;;;6.40;4.87;;;;;;;;;;143745;609;46022;-52
2021/08/22 12:32:15;;;;;;;9.93;5.32;;;;;;;;;;143742;606;46020;-52
2021/08/22 12:34:42;;;;;;;7.50;5.30;;;;;;;;;;143741;659;46010;-53
2021/08/22 12:37:11;;;;;;;8.27;5.53;;;;;;;;;;143746;659;45021;-52
2021/08/22 12:39:38;;;;;;;7.15;5.70;;;;;;;;;;143744;565;46010;-53
2021/08/22 12:42:05;;;;;;;8.07;5.70;;;;;;;;;;143744;613;46020;-52
2021/08/22 12:44:34;;;;;;;6.45;5.03;;;;;;;;;;143744;645;46011;-53
2021/08/22 12:47:05;;;;;;;7.78;5.70;;;;;;;;;;143746;571;46021;-53
2021/08/22 12:49:36;;;;;;;9.07;5.50;;;;;;;;;;143743;564;46022;-52
2021/08/22 12:52:09;;;;;;;6.60;5.40;;;;;;;;;;143740;573;46021;-53
2021/08/22 12:54:37;;;;;;;12.27;5.57;;;;;;;;;;143743;611;46010;-53
2021/08/22 12:57:05;;;;;;;6.45;5.10;;;;;;;;;;143747;595;45020;-53
2021/08/22 12:59:32;;;;;;;8.70;5.70;;;;;;;;;;143744;597;46021;-53
2021/08/22 13:01:59;;;;;;;7.43;5.87;;;;;;;;;;143743;613;46020;-53
2021/08/22 13:04:27;;;;;;;7.30;5.30;;;;;;;;;;143745;657;46010;-53
2021/08/22 13:06:58;;;;;;;9.75;5.30;;;;;;;;;;143748;569;45021;-53
2021/08/22 13:09:25;;;;;;;7.53;5.62;;;;;;;;;;143744;673;46020;-53
2021/08/22 13:11:53;;;;;;;7.15;5.53;;;;;;;;;;143740;657;46020;-53
2021/08/22 13:14:20;;;;;;;6.93;5.35;;;;;;;;;;143744;569;46010;-53
2021/08/22 13:16:47;;;;;;;8.40;5.60;;;;;;;;;;143747;622;45021;-53
2021/08/22 13:19:14;;;;;;;6.78;5.30;;;;;;;;;;143742;604;46022;-53
2021/08/22 13:21:41;;;;;;;12.32;5.45;;;;;;;;;;143744;596;46020;-53
2021/08/22 13:24:08;;;;;;;7.10;5.55;;;;;;;;;;143742;595;46010;-53
2021/08/22 13:26:38;;;;;;;6.93;5.47;;;;;;;;;;143747;569;46020;-53
2021/08/22 13:29:05;;;;;;;6.12;5.30;;;;;;;;;;143745;580;46022;-53
2021/08/22 13:31:32;;;;;;;7.40;5.57;;;;;;;;;;143742;595;46021;-53
2021/08/22 13:33:59;;;;;;;7.28;5.35;;;;;;;;;;143745;619;46010;-53
2021/08/22 13:36:26;;;;;;;9.40;6.00;;;;;;;;;;143746;567;46020;-53
2021/08/22 13:38:54;;;;;;;8.40;6.20;;;;;;;;;;143744;615;46021;-53
2021/08/22 13:41:21;;;;;;;11.80;5.32;;;;;;;;;;143744;595;46020;-53
2021/08/22 13:43:48;;;;;;;7.62;5.50;;;;;;;;;;143743;666;46010;-53
2021/08/22 13:46:15;;;;;;;6.40;5.43;;;;;;;;;;143747;586;45021;-53
2021/08/22 13:48:41;;;;;;;8.65;5.80;;;;;;;;;;143744;606;46020;-53
2021/08/22 13:51:12;;;;;;;7.07;5.30;;;;;;;;;;143743;579;46020;-54
2021/08/22 13:53:39;;;;;;;8.63;5.78;;;;;;;;;;143745;572;46010;-53
2021/08/22 13:56:06;;;;;;;7.53;6.10;;;;;;;;;;143747;616;45020;-53
2021/08/22 13:58:33;;;;;;;9.40;6.28;;;;;;;;;;143744;615;46022;-53
2021/08/22 14:01:00;;;;;;;7.97;5.60;;;;;;;;;;143741;595;46021;-53
2021/08/22 14:03:27;;;;;;;8.13;5.68;;;;;;;;;;143743;567;46010;-53
2021/08/22 14:05:54;;;;;;;8.23;5.70;;;;;;;;;;143748;564;46020;-53
2021/08/22 14:08:21;;;;;;;10.02;6.00;;;;;;;;;;143744;627;46021;-53
2021/08/22 14:10:48;;;;;;;15.40;6.30;;;;;;;;;;143741;586;46020;-53
2021/08/22 14:13:16;;;;;;;7.53;5.82;;;;;;;;;;143742;590;46020;-53
2021/08/22 14:15:43;;;;;;;9.57;6.20;;;;;;;;;;143747;595;45021;-53
2021/08/22 14:18:10;;;;;;;7.30;5.60;;;;;;;;;;143742;612;46022;-53
2021/08/22 14:20:36;;;;;;;7.07;5.65;;;;;;;;;;143740;564;46029;-53
2021/08/22 14:23:04;;;;;;;7.85;5.62;;;;;;;;;;143742;564;46021;-53
2021/08/22 14:25:31;;;;;;;8.52;5.25;;;;;;;;;;143746;607;45020;-53
2021/08/22 14:27:58;;;;;;;10.38;6.20;;;;;;;;;;143745;591;46022;-53
2021/08/22 14:30:25;;;;;;;7.97;6.12;;;;;;;;;;143741;569;46021;-53
2021/08/22 14:32:52;;;;;;;6.95;5.70;;;;;;;;;;143740;613;46010;-53
2021/08/22 14:35:19;;;;;;;6.60;5.80;;;;;;;;;;143732;636;46020;-53
2021/08/22 14:37:46;;;;;;;9.02;6.05;;;;;;;;;;143728;589;46022;-53
2021/08/22 14:40:13;;;;;;;7.10;5.62;;;;;;;;;;143730;594;46020;-53
2021/08/22 14:42:40;;;;;;;7.07;5.97;;;;;;;;;;143728;710;46010;-53
2021/08/22 14:45:07;;;;;;;7.15;5.57;;;;;;;;;;143734;608;46019;-53
2021/08/22 14:47:35;;;;;;;8.98;5.80;;;;;;;;;;143730;590;46020;-53
2021/08/22 14:50:02;;;;;;;7.85;5.85;;;;;;;;;;143728;574;46020;-53
2021/08/22 14:52:29;;;;;;;8.50;5.82;;;;;;;;;;143729;696;46011;-53
2021/08/22 14:54:56;;;;;;;9.07;5.97;;;;;;;;;;143732;673;46020;-54
2021/08/22 14:57:23;;;;;;;9.45;6.00;;;;;;;;;;143729;573;46022;-54
2021/08/22 14:59:50;;;;;;;10.45;6.20;;;;;;;;;;143727;606;46021;-53
2021/08/22 15:02:17;;;;;;;8.88;6.40;;;;;;;;;;143730;660;46010;-53
2021/08/22 15:04:45;;;;;;;7.82;6.57;;;;;;;;;;143733;565;46010;-53